sensor_id;sensor_type;location;lat;lon;timestamp;pressure;altitude;pressure_sealevel;temperature;humidity
46876;BME280;32866;50.160;14.768;2024-03-23T00:56:16;98633.34;;;10.59;100.00
46876;BME280;32866;50.160;14.768;2024-03-23T00:58:42;98619.50;;;10.53;100.00
46876;BME280;32866;50.160;14.768;2024-03-23T01:01:08;98621.19;;;10.51;100.00
46876;BME280;32866;50.160;14.768;2024-03-23T01:03:34;98638.56;;;10.66;100.00
46876;BME280;32866;50.160;14.768;2024-03-23T01:06:01;98635.81;;;10.75;100.00
46876;BME280;32866;50.160;14.768;2024-03-23T01:08:27;98617.69;;;10.50;100.00
46876;BME280;32866;50.160;14.768;2024-03-23T01:10:55;98629.56;;;10.56;100.00
46876;BME280;32866;50.160;14.768;2024-03-23T01:13:21;98555.56;;;10.19;100.00
46876;BME280;32866;50.160;14.768;2024-03-23T01:15:51;98602.91;;;10.57;100.00
46876;BME280;32866;50.160;14.768;2024-03-23T01:18:19;98605.38;;;10.55;100.00
46876;BME280;32866;50.160;14.768;2024-03-23T01:20:45;98602.03;;;10.51;100.00
46876;BME280;32866;50.160;14.768;2024-03-23T01:23:11;98606.28;;;10.43;100.00
46876;BME280;32866;50.160;14.768;2024-03-23T01:25:37;98599.44;;;10.38;100.00
46876;BME280;32866;50.160;14.768;2024-03-23T01:28:04;98581.25;;;10.22;100.00
46876;BME280;32866;50.160;14.768;2024-03-23T01:30:30;98586.63;;;10.35;100.00
46876;BME280;32866;50.160;14.768;2024-03-23T01:32:56;98577.38;;;10.32;100.00
46876;BME280;32866;50.160;14.768;2024-03-23T01:35:22;98555.72;;;10.25;100.00
46876;BME280;32866;50.160;14.768;2024-03-23T01:37:48;98574.75;;;10.47;100.00
46876;BME280;32866;50.160;14.768;2024-03-23T01:40:16;98503.56;;;10.19;100.00
46876;BME280;32866;50.160;14.768;2024-03-23T01:42:42;98553.31;;;10.64;100.00
46876;BME280;32866;50.160;14.768;2024-03-23T01:45:09;98554.38;;;10.76;100.00
46876;BME280;32866;50.160;14.768;2024-03-23T01:47:35;98521.97;;;10.47;100.00
46876;BME280;32866;50.160;14.768;2024-03-23T01:50:01;98543.72;;;10.69;100.00
46876;BME280;32866;50.160;14.768;2024-03-23T01:52:28;98527.75;;;10.49;100.00
46876;BME280;32866;50.160;14.768;2024-03-23T01:54:54;98513.16;;;10.33;100.00
46876;BME280;32866;50.160;14.768;2024-03-23T01:57:20;98515.28;;;10.38;100.00
46876;BME280;32866;50.160;14.768;2024-03-23T01:59:49;98541.41;;;10.67;100.00
46876;BME280;32866;50.160;14.768;2024-03-23T02:02:15;98492.44;;;10.23;100.00
46876;BME280;32866;50.160;14.768;2024-03-23T02:04:43;98483.50;;;10.32;100.00
46876;BME280;32866;50.160;14.768;2024-03-23T02:07:09;98514.06;;;10.49;100.00
46876;BME280;32866;50.160;14.768;2024-03-23T02:09:35;98533.81;;;10.62;100.00
46876;BME280;32866;50.160;14.768;2024-03-23T02:12:02;98509.81;;;10.38;100.00
46876;BME280;32866;50.160;14.768;2024-03-23T02:14:28;98491.69;;;10.13;100.00
46876;BME280;32866;50.160;14.768;2024-03-23T02:16:54;98537.97;;;10.39;100.00
46876;BME280;32866;50.160;14.768;2024-03-23T02:19:20;98524.41;;;10.26;100.00
46876;BME280;32866;50.160;14.768;2024-03-23T02:21:46;98507.66;;;10.06;100.00
46876;BME280;32866;50.160;14.768;2024-03-23T02:24:13;98526.84;;;10.33;100.00
46876;BME280;32866;50.160;14.768;2024-03-23T02:26:39;98473.88;;;9.90;100.00
46876;BME280;32866;50.160;14.768;2024-03-23T02:29:05;98514.66;;;10.16;100.00
46876;BME280;32866;50.160;14.768;2024-03-23T02:31:31;98462.31;;;9.95;100.00
46876;BME280;32866;50.160;14.768;2024-03-23T02:33:57;98446.53;;;9.99;100.00
46876;BME280;32866;50.160;14.768;2024-03-23T02:36:23;98480.88;;;10.10;100.00
46876;BME280;32866;50.160;14.768;2024-03-23T02:38:49;98478.00;;;10.32;100.00
46876;BME280;32866;50.160;14.768;2024-03-23T02:41:15;98489.72;;;10.51;100.00
46876;BME280;32866;50.160;14.768;2024-03-23T02:43:50;98475.41;;;10.47;100.00
46876;BME280;32866;50.160;14.768;2024-03-23T02:46:17;98464.16;;;10.35;100.00
46876;BME280;32866;50.160;14.768;2024-03-23T02:48:43;98474.19;;;10.48;100.00
46876;BME280;32866;50.160;14.768;2024-03-23T02:51:09;98466.59;;;10.24;100.00
46876;BME280;32866;50.160;14.768;2024-03-23T02:53:35;98469.94;;;10.19;100.00
46876;BME280;32866;50.160;14.768;2024-03-23T02:56:01;98463.53;;;10.03;100.00
46876;BME280;32866;50.160;14.768;2024-03-23T02:58:27;98468.28;;;9.94;100.00
46876;BME280;32866;50.160;14.768;2024-03-23T03:00:53;98442.69;;;9.60;100.00
46876;BME280;32866;50.160;14.768;2024-03-23T03:03:19;98442.97;;;9.43;100.00
46876;BME280;32866;50.160;14.768;2024-03-23T03:05:45;98453.41;;;9.26;100.00
46876;BME280;32866;50.160;14.768;2024-03-23T03:08:11;98445.34;;;9.23;100.00
46876;BME280;32866;50.160;14.768;2024-03-23T03:10:37;98452.78;;;9.22;100.00
46876;BME280;32866;50.160;14.768;2024-03-23T03:13:03;98449.84;;;8.98;100.00
46876;BME280;32866;50.160;14.768;2024-03-23T03:15:29;98446.63;;;9.00;100.00
46876;BME280;32866;50.160;14.768;2024-03-23T03:17:55;98398.91;;;8.51;100.00
46876;BME280;32866;50.160;14.768;2024-03-23T03:20:21;98438.41;;;8.90;100.00
46876;BME280;32866;50.160;14.768;2024-03-23T03:22:49;98403.03;;;8.56;100.00
46876;BME280;32866;50.160;14.768;2024-03-23T03:25:15;98432.91;;;8.81;100.00
46876;BME280;32866;50.160;14.768;2024-03-23T03:27:41;98419.16;;;8.63;100.00
46876;BME280;32866;50.160;14.768;2024-03-23T03:30:07;98379.97;;;8.25;100.00
46876;BME280;32866;50.160;14.768;2024-03-23T03:32:34;98409.00;;;8.41;100.00
46876;BME280;32866;50.160;14.768;2024-03-23T03:35:00;98386.53;;;8.37;100.00
46876;BME280;32866;50.160;14.768;2024-03-23T03:37:26;98416.34;;;8.76;100.00
46876;BME280;32866;50.160;14.768;2024-03-23T03:39:52;98379.63;;;8.45;100.00
46876;BME280;32866;50.160;14.768;2024-03-23T03:42:18;98375.63;;;8.37;100.00
46876;BME280;32866;50.160;14.768;2024-03-23T03:44:44;98411.41;;;8.61;100.00
46876;BME280;32866;50.160;14.768;2024-03-23T03:47:10;98367.13;;;8.35;100.00
46876;BME280;32866;50.160;14.768;2024-03-23T03:49:36;98405.25;;;8.70;100.00
46876;BME280;32866;50.160;14.768;2024-03-23T03:52:03;98407.56;;;8.81;100.00
46876;BME280;32866;50.160;14.768;2024-03-23T03:54:29;98371.38;;;8.58;100.00
46876;BME280;32866;50.160;14.768;2024-03-23T03:56:55;98395.56;;;8.78;100.00
46876;BME280;32866;50.160;14.768;2024-03-23T03:59:21;98397.44;;;8.59;100.00
46876;BME280;32866;50.160;14.768;2024-03-23T04:01:47;98368.53;;;8.17;100.00
46876;BME280;32866;50.160;14.768;2024-03-23T04:04:13;98376.38;;;8.06;100.00
46876;BME280;32866;50.160;14.768;2024-03-23T04:06:39;98340.91;;;8.06;100.00
46876;BME280;32866;50.160;14.768;2024-03-23T04:09:05;98346.53;;;8.12;100.00
46876;BME280;32866;50.160;14.768;2024-03-23T04:11:32;98328.59;;;8.33;100.00
46876;BME280;32866;50.160;14.768;2024-03-23T04:13:58;98356.31;;;8.53;100.00
46876;BME280;32866;50.160;14.768;2024-03-23T04:16:28;98367.53;;;8.87;100.00
46876;BME280;32866;50.160;14.768;2024-03-23T04:18:54;98369.50;;;8.96;100.00
46876;BME280;32866;50.160;14.768;2024-03-23T04:21:21;98354.81;;;9.02;100.00
46876;BME280;32866;50.160;14.768;2024-03-23T04:23:48;98346.63;;;9.21;100.00
46876;BME280;32866;50.160;14.768;2024-03-23T04:26:15;98352.56;;;9.38;100.00
46876;BME280;32866;50.160;14.768;2024-03-23T04:28:41;98358.38;;;9.49;100.00
46876;BME280;32866;50.160;14.768;2024-03-23T04:31:07;98312.63;;;9.22;100.00
46876;BME280;32866;50.160;14.768;2024-03-23T04:33:33;98352.88;;;9.58;100.00
46876;BME280;32866;50.160;14.768;2024-03-23T04:35:59;98346.22;;;9.59;100.00
46876;BME280;32866;50.160;14.768;2024-03-23T04:38:25;98335.72;;;9.58;100.00
46876;BME280;32866;50.160;14.768;2024-03-23T04:40:58;98326.16;;;9.62;100.00
46876;BME280;32866;50.160;14.768;2024-03-23T04:43:28;98333.16;;;9.54;100.00
46876;BME280;32866;50.160;14.768;2024-03-23T04:45:54;98288.75;;;9.13;100.00
46876;BME280;32866;50.160;14.768;2024-03-23T04:48:21;98331.16;;;9.36;100.00
46876;BME280;32866;50.160;14.768;2024-03-23T04:50:49;98331.63;;;9.25;100.00
46876;BME280;32866;50.160;14.768;2024-03-23T04:53:15;98317.66;;;9.23;100.00
46876;BME280;32866;50.160;14.768;2024-03-23T04:55:44;98327.81;;;9.23;100.00
46876;BME280;32866;50.160;14.768;2024-03-23T04:58:10;98324.16;;;9.26;100.00
46876;BME280;32866;50.160;14.768;2024-03-23T05:00:36;98315.19;;;9.07;100.00
46876;BME280;32866;50.160;14.768;2024-03-23T05:03:02;98298.16;;;8.84;100.00
46876;BME280;32866;50.160;14.768;2024-03-23T05:05:29;98306.81;;;9.01;100.00
46876;BME280;32866;50.160;14.768;2024-03-23T05:07:55;98309.69;;;8.88;100.00
46876;BME280;32866;50.160;14.768;2024-03-23T05:10:21;98272.94;;;8.80;100.00
46876;BME280;32866;50.160;14.768;2024-03-23T05:12:48;98267.75;;;8.73;100.00
46876;BME280;32866;50.160;14.768;2024-03-23T05:15:14;98303.03;;;8.99;100.00
46876;BME280;32866;50.160;14.768;2024-03-23T05:17:40;98304.88;;;9.11;100.00
46876;BME280;32866;50.160;14.768;2024-03-23T05:20:06;98295.63;;;9.18;100.00
46876;BME280;32866;50.160;14.768;2024-03-23T05:22:36;98253.09;;;8.89;100.00
46876;BME280;32866;50.160;14.768;2024-03-23T05:25:02;98289.09;;;9.34;100.00
46876;BME280;32866;50.160;14.768;2024-03-23T05:27:32;98291.22;;;9.39;100.00
46876;BME280;32866;50.160;14.768;2024-03-23T05:29:58;98253.56;;;9.24;100.00
46876;BME280;32866;50.160;14.768;2024-03-23T05:32:25;98260.22;;;9.33;100.00
46876;BME280;32866;50.160;14.768;2024-03-23T05:34:51;98298.78;;;9.53;100.00
46876;BME280;32866;50.160;14.768;2024-03-23T05:37:22;98265.38;;;9.68;100.00
46876;BME280;32866;50.160;14.768;2024-03-23T05:39:48;98243.31;;;9.71;100.00
46876;BME280;32866;50.160;14.768;2024-03-23T05:42:16;98294.25;;;10.20;100.00
46876;BME280;32866;50.160;14.768;2024-03-23T05:44:46;98270.63;;;10.42;100.00
46876;BME280;32866;50.160;14.768;2024-03-23T05:47:13;98261.94;;;10.52;100.00
46876;BME280;32866;50.160;14.768;2024-03-23T05:49:42;98258.38;;;10.61;100.00
46876;BME280;32866;50.160;14.768;2024-03-23T05:52:09;98258.78;;;10.69;100.00
46876;BME280;32866;50.160;14.768;2024-03-23T05:54:35;98244.03;;;10.66;100.00
46876;BME280;32866;50.160;14.768;2024-03-23T05:57:02;98262.88;;;11.12;100.00
46876;BME280;32866;50.160;14.768;2024-03-23T05:59:28;98227.63;;;11.05;100.00
46876;BME280;32866;50.160;14.768;2024-03-23T06:01:54;98229.38;;;10.93;100.00
46876;BME280;32866;50.160;14.768;2024-03-23T06:04:20;98240.53;;;10.90;100.00
46876;BME280;32866;50.160;14.768;2024-03-23T06:06:48;98242.84;;;10.82;100.00
46876;BME280;32866;50.160;14.768;2024-03-23T06:09:14;98229.09;;;10.67;100.00
46876;BME280;32866;50.160;14.768;2024-03-23T06:11:40;98234.34;;;10.56;100.00
46876;BME280;32866;50.160;14.768;2024-03-23T06:14:06;98225.19;;;10.59;100.00
46876;BME280;32866;50.160;14.768;2024-03-23T06:16:32;98229.44;;;10.60;100.00
46876;BME280;32866;50.160;14.768;2024-03-23T06:18:58;98228.16;;;10.70;100.00
46876;BME280;32866;50.160;14.768;2024-03-23T06:21:24;98236.53;;;10.76;100.00
46876;BME280;32866;50.160;14.768;2024-03-23T06:23:54;98227.25;;;10.73;100.00
46876;BME280;32866;50.160;14.768;2024-03-23T06:26:21;98202.47;;;10.68;100.00
46876;BME280;32866;50.160;14.768;2024-03-23T06:28:47;98224.13;;;10.81;100.00
46876;BME280;32866;50.160;14.768;2024-03-23T06:31:13;98200.78;;;10.70;100.00
46876;BME280;32866;50.160;14.768;2024-03-23T06:33:39;98207.56;;;10.99;100.00
46876;BME280;32866;50.160;14.768;2024-03-23T06:36:10;98197.09;;;11.12;100.00
46876;BME280;32866;50.160;14.768;2024-03-23T06:38:37;98196.34;;;11.12;100.00
46876;BME280;32866;50.160;14.768;2024-03-23T06:41:06;98199.38;;;11.14;100.00
46876;BME280;32866;50.160;14.768;2024-03-23T06:43:32;98214.41;;;11.19;100.00
46876;BME280;32866;50.160;14.768;2024-03-23T06:45:58;98177.72;;;11.01;100.00
46876;BME280;32866;50.160;14.768;2024-03-23T06:48:24;98193.13;;;11.13;100.00
46876;BME280;32866;50.160;14.768;2024-03-23T06:50:58;98192.47;;;11.19;100.00
46876;BME280;32866;50.160;14.768;2024-03-23T06:53:24;98185.97;;;11.31;100.00
46876;BME280;32866;50.160;14.768;2024-03-23T06:55:54;98189.09;;;11.24;100.00
46876;BME280;32866;50.160;14.768;2024-03-23T06:58:20;98192.56;;;11.24;100.00
46876;BME280;32866;50.160;14.768;2024-03-23T07:00:46;98133.25;;;10.82;100.00
46876;BME280;32866;50.160;14.768;2024-03-23T07:03:12;98126.56;;;10.83;100.00
46876;BME280;32866;50.160;14.768;2024-03-23T07:05:38;98166.28;;;11.18;100.00
46876;BME280;32866;50.160;14.768;2024-03-23T07:08:05;98165.69;;;11.88;100.00
46876;BME280;32866;50.160;14.768;2024-03-23T07:10:31;98155.59;;;11.94;100.00
46876;BME280;32866;50.160;14.768;2024-03-23T07:12:57;98156.53;;;11.91;100.00
46876;BME280;32866;50.160;14.768;2024-03-23T07:15:23;98159.78;;;12.25;100.00
46876;BME280;32866;50.160;14.768;2024-03-23T07:17:49;98099.38;;;13.88;100.00
46876;BME280;32866;50.160;14.768;2024-03-23T07:20:15;98148.28;;;16.74;98.49
46876;BME280;32866;50.160;14.768;2024-03-23T07:22:41;98142.75;;;18.42;85.31
46876;BME280;32866;50.160;14.768;2024-03-23T07:25:07;98130.31;;;18.68;79.16
46876;BME280;32866;50.160;14.768;2024-03-23T07:27:33;98128.19;;;18.36;75.71
46876;BME280;32866;50.160;14.768;2024-03-23T07:29:59;98124.06;;;19.38;72.39
46876;BME280;32866;50.160;14.768;2024-03-23T07:32:27;98099.81;;;21.75;61.48
46876;BME280;32866;50.160;14.768;2024-03-23T07:34:52;98083.81;;;20.04;63.50
46876;BME280;32866;50.160;14.768;2024-03-23T07:37:19;98099.75;;;17.80;73.67
46876;BME280;32866;50.160;14.768;2024-03-23T07:39:45;98062.91;;;15.94;81.48
46876;BME280;32866;50.160;14.768;2024-03-23T07:42:11;98062.97;;;18.48;74.14
46876;BME280;32866;50.160;14.768;2024-03-23T07:44:36;98085.47;;;20.73;65.41
46876;BME280;32866;50.160;14.768;2024-03-23T07:47:03;98064.41;;;20.51;62.57
46876;BME280;32866;50.160;14.768;2024-03-23T07:49:29;98059.00;;;21.93;57.75
46876;BME280;32866;50.160;14.768;2024-03-23T07:51:55;98080.00;;;23.58;53.72
46876;BME280;32866;50.160;14.768;2024-03-23T07:54:21;98047.16;;;25.86;47.92
46876;BME280;32866;50.160;14.768;2024-03-23T07:56:47;98072.13;;;28.10;41.66
46876;BME280;32866;50.160;14.768;2024-03-23T08:01:49;98041.09;;;28.88;35.77
46876;BME280;32866;50.160;14.768;2024-03-23T08:04:15;98028.69;;;27.74;36.17
46876;BME280;32866;50.160;14.768;2024-03-23T08:06:41;98028.63;;;26.71;37.85
46876;BME280;32866;50.160;14.768;2024-03-23T08:09:07;98022.94;;;27.25;37.07
46876;BME280;32866;50.160;14.768;2024-03-23T08:11:33;98036.13;;;26.06;38.22
46876;BME280;32866;50.160;14.768;2024-03-23T08:14:00;98026.75;;;24.75;40.73
46876;BME280;32866;50.160;14.768;2024-03-23T08:16:27;98021.91;;;25.69;38.92
46876;BME280;32866;50.160;14.768;2024-03-23T08:18:54;97987.94;;;23.67;41.63
46876;BME280;32866;50.160;14.768;2024-03-23T08:21:22;97996.34;;;23.06;43.69
46876;BME280;32866;50.160;14.768;2024-03-23T08:23:48;97992.03;;;22.14;45.39
46876;BME280;32866;50.160;14.768;2024-03-23T08:26:15;98005.72;;;22.41;45.67
46876;BME280;32866;50.160;14.768;2024-03-23T08:28:41;97964.44;;;21.59;46.44
46876;BME280;32866;50.160;14.768;2024-03-23T08:31:09;97996.63;;;20.62;51.15
46876;BME280;32866;50.160;14.768;2024-03-23T08:33:35;97989.59;;;21.74;48.87
46876;BME280;32866;50.160;14.768;2024-03-23T08:36:06;97967.84;;;23.46;45.81
46876;BME280;32866;50.160;14.768;2024-03-23T08:38:33;97971.94;;;23.60;43.49
46876;BME280;32866;50.160;14.768;2024-03-23T08:43:30;97974.75;;;22.23;44.86
46876;BME280;32866;50.160;14.768;2024-03-23T08:46:13;97978.06;;;20.99;48.87
46876;BME280;32866;50.160;14.768;2024-03-23T08:48:43;97967.66;;;22.07;47.46
46876;BME280;32866;50.160;14.768;2024-03-23T08:51:15;97968.09;;;21.90;48.30
46876;BME280;32866;50.160;14.768;2024-03-23T08:53:42;97968.41;;;21.21;48.96
46876;BME280;32866;50.160;14.768;2024-03-23T08:56:09;97975.63;;;22.70;46.98
46876;BME280;32866;50.160;14.768;2024-03-23T08:58:36;97970.69;;;23.15;45.08
46876;BME280;32866;50.160;14.768;2024-03-23T09:01:04;97960.19;;;22.77;45.71
46876;BME280;32866;50.160;14.768;2024-03-23T09:03:31;97912.84;;;21.73;47.35
46876;BME280;32866;50.160;14.768;2024-03-23T09:05:57;97964.31;;;23.38;44.23
46876;BME280;32866;50.160;14.768;2024-03-23T09:08:24;97961.81;;;24.69;42.09
46876;BME280;32866;50.160;14.768;2024-03-23T09:10:50;97944.34;;;22.41;45.37
46876;BME280;32866;50.160;14.768;2024-03-23T09:13:16;97953.03;;;20.99;50.80
46876;BME280;32866;50.160;14.768;2024-03-23T09:15:47;97927.44;;;19.76;52.48
46876;BME280;32866;50.160;14.768;2024-03-23T09:18:13;97959.25;;;19.62;53.89
46876;BME280;32866;50.160;14.768;2024-03-23T09:20:39;97944.47;;;19.14;54.64
46876;BME280;32866;50.160;14.768;2024-03-23T09:23:05;97961.88;;;19.01;56.82
46876;BME280;32866;50.160;14.768;2024-03-23T09:25:31;97921.13;;;19.22;54.89
46876;BME280;32866;50.160;14.768;2024-03-23T09:27:58;97942.16;;;19.71;54.58
46876;BME280;32866;50.160;14.768;2024-03-23T09:30:24;97957.94;;;20.51;52.45
46876;BME280;32866;50.160;14.768;2024-03-23T09:32:50;97952.06;;;19.13;54.72
46876;BME280;32866;50.160;14.768;2024-03-23T09:35:16;97947.31;;;17.42;57.11
46876;BME280;32866;50.160;14.768;2024-03-23T09:37:42;97970.91;;;16.58;61.86
46876;BME280;32866;50.160;14.768;2024-03-23T09:40:11;97979.78;;;15.98;64.43
46876;BME280;32866;50.160;14.768;2024-03-23T09:42:37;97992.94;;;15.58;67.46
46876;BME280;32866;50.160;14.768;2024-03-23T09:45:17;97958.16;;;14.98;69.78
46876;BME280;32866;50.160;14.768;2024-03-23T09:47:43;97953.41;;;15.10;69.88
46876;BME280;32866;50.160;14.768;2024-03-23T09:50:09;98000.44;;;15.63;69.38
46876;BME280;32866;50.160;14.768;2024-03-23T09:52:35;97980.53;;;15.99;68.91
46876;BME280;32866;50.160;14.768;2024-03-23T09:55:01;97952.66;;;15.97;73.02
46876;BME280;32866;50.160;14.768;2024-03-23T09:57:29;97965.00;;;15.95;75.26
46876;BME280;32866;50.160;14.768;2024-03-23T09:59:55;97946.13;;;15.18;79.30
46876;BME280;32866;50.160;14.768;2024-03-23T10:02:24;97993.25;;;14.98;76.91
46876;BME280;32866;50.160;14.768;2024-03-23T10:04:50;97960.16;;;14.64;78.01
46876;BME280;32866;50.160;14.768;2024-03-23T10:07:19;98001.72;;;14.55;79.39
46876;BME280;32866;50.160;14.768;2024-03-23T10:09:45;97995.66;;;14.39;83.77
46876;BME280;32866;50.160;14.768;2024-03-23T10:12:14;98011.28;;;13.94;86.21
46876;BME280;32866;50.160;14.768;2024-03-23T10:14:41;98019.16;;;13.63;88.71
46876;BME280;32866;50.160;14.768;2024-03-23T10:17:18;98028.50;;;13.40;95.23
46876;BME280;32866;50.160;14.768;2024-03-23T10:22:14;98045.75;;;13.08;100.00
46876;BME280;32866;50.160;14.768;2024-03-23T10:24:42;98034.22;;;12.78;100.00
46876;BME280;32866;50.160;14.768;2024-03-23T10:27:09;98076.47;;;13.33;100.00
46876;BME280;32866;50.160;14.768;2024-03-23T10:29:34;98061.88;;;13.27;100.00
46876;BME280;32866;50.160;14.768;2024-03-23T10:32:11;98068.72;;;13.05;100.00
46876;BME280;32866;50.160;14.768;2024-03-23T10:34:37;98065.06;;;12.88;100.00
46876;BME280;32866;50.160;14.768;2024-03-23T10:37:04;98039.03;;;12.83;100.00
46876;BME280;32866;50.160;14.768;2024-03-23T10:39:32;98069.81;;;12.87;100.00
46876;BME280;32866;50.160;14.768;2024-03-23T10:42:01;98079.25;;;12.80;100.00
46876;BME280;32866;50.160;14.768;2024-03-23T10:44:28;98080.69;;;12.76;100.00
46876;BME280;32866;50.160;14.768;2024-03-23T10:47:00;98088.09;;;12.70;100.00
46876;BME280;32866;50.160;14.768;2024-03-23T10:49:29;98073.88;;;12.71;100.00
46876;BME280;32866;50.160;14.768;2024-03-23T10:51:57;98073.84;;;12.45;100.00
46876;BME280;32866;50.160;14.768;2024-03-23T10:54:24;98075.50;;;12.57;100.00
46876;BME280;32866;50.160;14.768;2024-03-23T10:56:53;98052.38;;;12.43;100.00
46876;BME280;32866;50.160;14.768;2024-03-23T10:59:22;98091.69;;;13.02;100.00
46876;BME280;32866;50.160;14.768;2024-03-23T11:01:58;98083.66;;;13.30;99.02
46876;BME280;32866;50.160;14.768;2024-03-23T11:04:35;98087.81;;;13.41;96.89
46876;BME280;32866;50.160;14.768;2024-03-23T11:07:36;98073.78;;;13.12;96.85
46876;BME280;32866;50.160;14.768;2024-03-23T11:10:26;98074.88;;;12.94;98.62
46876;BME280;32866;50.160;14.768;2024-03-23T11:12:53;98087.28;;;12.84;98.97
46876;BME280;32866;50.160;14.768;2024-03-23T11:15:19;98088.06;;;12.90;99.83
46876;BME280;32866;50.160;14.768;2024-03-23T11:18:05;98075.88;;;13.23;96.31
46876;BME280;32866;50.160;14.768;2024-03-23T11:20:34;98075.88;;;13.55;92.27
46876;BME280;32866;50.160;14.768;2024-03-23T11:23:01;98073.69;;;14.08;89.26
46876;BME280;32866;50.160;14.768;2024-03-23T11:25:27;98077.53;;;14.27;85.94
46876;BME280;32866;50.160;14.768;2024-03-23T11:27:58;98025.53;;;13.43;88.42
46876;BME280;32866;50.160;14.768;2024-03-23T11:30:34;98085.16;;;13.95;87.95
46876;BME280;32866;50.160;14.768;2024-03-23T11:33:02;98082.13;;;13.93;86.61
46876;BME280;32866;50.160;14.768;2024-03-23T11:38:07;98065.50;;;14.25;85.23
46876;BME280;32866;50.160;14.768;2024-03-23T11:40:36;98074.09;;;14.44;84.75
46876;BME280;32866;50.160;14.768;2024-03-23T11:43:07;98067.59;;;14.47;81.63
46876;BME280;32866;50.160;14.768;2024-03-23T11:45:37;98085.81;;;15.16;79.90
46876;BME280;32866;50.160;14.768;2024-03-23T11:50:33;98049.53;;;14.40;77.48
46876;BME280;32866;50.160;14.768;2024-03-23T11:53:13;98047.94;;;14.17;80.28
46876;BME280;32866;50.160;14.768;2024-03-23T11:55:53;98094.06;;;13.79;82.74
46876;BME280;32866;50.160;14.768;2024-03-23T11:58:20;98108.84;;;13.17;90.00
46876;BME280;32866;50.160;14.768;2024-03-23T12:03:20;98119.34;;;11.75;100.00
46876;BME280;32866;50.160;14.768;2024-03-23T12:06:03;98149.94;;;12.18;100.00
46876;BME280;32866;50.160;14.768;2024-03-23T12:08:33;98160.09;;;12.33;99.41
46876;BME280;32866;50.160;14.768;2024-03-23T12:11:13;98158.75;;;12.43;93.56
46876;BME280;32866;50.160;14.768;2024-03-23T12:13:41;98152.84;;;12.50;87.98
46876;BME280;32866;50.160;14.768;2024-03-23T12:16:09;98173.47;;;12.60;87.92
46876;BME280;32866;50.160;14.768;2024-03-23T12:18:36;98191.22;;;12.65;88.97
46876;BME280;32866;50.160;14.768;2024-03-23T12:21:03;98192.00;;;12.66;91.93
46876;BME280;32866;50.160;14.768;2024-03-23T12:23:30;98141.84;;;12.71;87.01
46876;BME280;32866;50.160;14.768;2024-03-23T12:25:56;98200.50;;;12.88;83.47
46876;BME280;32866;50.160;14.768;2024-03-23T12:28:22;98176.72;;;12.85;78.42
46876;BME280;32866;50.160;14.768;2024-03-23T12:30:48;98166.44;;;12.39;75.22
46876;BME280;32866;50.160;14.768;2024-03-23T12:33:14;98222.59;;;12.38;75.33
46876;BME280;32866;50.160;14.768;2024-03-23T12:35:40;98167.50;;;11.76;72.72
46876;BME280;32866;50.160;14.768;2024-03-23T12:38:06;98187.97;;;12.25;71.16
46876;BME280;32866;50.160;14.768;2024-03-23T12:40:32;98162.38;;;12.34;69.88
46876;BME280;32866;50.160;14.768;2024-03-23T12:42:58;98224.63;;;12.58;68.27
46876;BME280;32866;50.160;14.768;2024-03-23T12:45:24;98233.75;;;12.49;69.07
46876;BME280;32866;50.160;14.768;2024-03-23T12:47:50;98247.53;;;12.34;70.95
46876;BME280;32866;50.160;14.768;2024-03-23T12:51:55;98256.47;;;11.99;71.33
46876;BME280;32866;50.160;14.768;2024-03-23T12:54:40;98272.44;;;11.71;72.80
46876;BME280;32866;50.160;14.768;2024-03-23T12:59:08;98270.34;;;11.51;70.77
46876;BME280;32866;50.160;14.768;2024-03-23T13:01:53;98269.63;;;11.11;72.00
46876;BME280;32866;50.160;14.768;2024-03-23T13:06:18;98320.31;;;11.16;71.52
46876;BME280;32866;50.160;14.768;2024-03-23T13:08:47;98331.38;;;11.22;72.55
46876;BME280;32866;50.160;14.768;2024-03-23T13:11:15;98300.09;;;11.04;70.31
46876;BME280;32866;50.160;14.768;2024-03-23T13:13:41;98359.78;;;11.33;72.28
46876;BME280;32866;50.160;14.768;2024-03-23T13:16:07;98362.44;;;11.43;71.16
46876;BME280;32866;50.160;14.768;2024-03-23T13:18:33;98369.59;;;11.25;72.70
46876;BME280;32866;50.160;14.768;2024-03-23T13:21:05;98360.72;;;11.06;70.30
46876;BME280;32866;50.160;14.768;2024-03-23T13:23:31;98392.34;;;11.17;69.96
46876;BME280;32866;50.160;14.768;2024-03-23T13:25:59;98384.66;;;11.30;72.46
46876;BME280;32866;50.160;14.768;2024-03-23T13:28:25;98330.50;;;10.91;70.63
46876;BME280;32866;50.160;14.768;2024-03-23T13:30:54;98401.94;;;10.88;73.43
46876;BME280;32866;50.160;14.768;2024-03-23T13:33:21;98377.63;;;11.05;71.85
46876;BME280;32866;50.160;14.768;2024-03-23T13:35:50;98392.59;;;11.28;73.20
46876;BME280;32866;50.160;14.768;2024-03-23T13:38:16;98429.16;;;11.97;71.33
46876;BME280;32866;50.160;14.768;2024-03-23T13:40:58;98418.69;;;12.40;66.81
46876;BME280;32866;50.160;14.768;2024-03-23T13:43:27;98414.66;;;12.86;64.43
46876;BME280;32866;50.160;14.768;2024-03-23T13:45:57;98425.41;;;12.84;60.73
46876;BME280;32866;50.160;14.768;2024-03-23T13:48:25;98434.19;;;12.88;61.24
46876;BME280;32866;50.160;14.768;2024-03-23T13:51:02;98437.25;;;12.60;60.19
46876;BME280;32866;50.160;14.768;2024-03-23T13:53:28;98429.47;;;12.74;59.15
46876;BME280;32866;50.160;14.768;2024-03-23T13:55:54;98426.47;;;12.27;59.10
46876;BME280;32866;50.160;14.768;2024-03-23T13:58:21;98446.63;;;12.39;60.23
46876;BME280;32866;50.160;14.768;2024-03-23T14:03:23;98415.22;;;11.38;60.65
46876;BME280;32866;50.160;14.768;2024-03-23T14:05:49;98471.31;;;11.61;61.66
46876;BME280;32866;50.160;14.768;2024-03-23T14:08:15;98458.88;;;11.26;62.87